PWSweather.com
Personal Weather Stations
Station Observations
KG5EIU
Vista Oaks, St Paul, TX 75098

Vista OaksSt Paul, TX 75098

Lat: 33.0430204, Lon: -96.5552108

Elevation: 569

Station Type: Davis Vantage Pro2

https://davidcappello.com/weather/

Latest ConditionsUpdated 11:40:15 AM CST Tuesday, Jan 22, 2019
Currently Today's Max Today's Min Today's Average
Temperature 59.3°F15.2°C 59.6°F15.3°C 51.2°F10.7°C 54.8°F12.7°C
Dew Point 54.1°F12.3°C 54.3°F12.4°C 47.1°F8.4°C 50.5°F10.3°C
Winds 11.0 mph S17.7 kmh S 17.0 mph -27.4 kmh - - 8.5 mph 13.7 kmh
Wind Gusts -- -- - -
Humidity 83% 88% 83% 86%
Pressure 29.83 in1010.2 mb 29.92 in1013.2 mb 29.81 in1009.5 mb -
Hour Temp Dew Point Humidity Winds Wind Gusts Pressure Precip Precip Rate Daily Precip Total
11:40 AM 59.3°F15.2°C 54.1°F12.3°C 83% 11.0 mph S17.7 kmh S -- 29.83 in1010.2 mb 0.00 in0.0 mm 0.00 in0.0 mm 0.00 in0.0 mm
11:35 AM 59.3°F15.2°C 54.1°F12.3°C 83% 7.0 mph SSW11.3 kmh SSW -- 29.83 in1010.2 mb 0.00 in0.0 mm 0.00 in0.0 mm 0.00 in0.0 mm
11:30 AM 59.2°F15.1°C 54.3°F12.4°C 84% 6.0 mph S9.7 kmh S -- 29.83 in1010.2 mb 0.00 in0.0 mm 0.00 in0.0 mm 0.00 in0.0 mm
11:25 AM 59.2°F15.1°C 54.3°F12.4°C 84% 7.0 mph SSW11.3 kmh SSW -- 29.83 in1010.2 mb 0.00 in0.0 mm 0.00 in0.0 mm 0.00 in0.0 mm
11:20 AM 59.2°F15.1°C 54.3°F12.4°C 84% 4.0 mph SSE6.4 kmh SSE -- 29.83 in1010.2 mb 0.00 in0.0 mm 0.00 in0.0 mm 0.00 in0.0 mm
11:15 AM 59.3°F15.2°C 54.1°F12.3°C 83% 5.0 mph SW8.0 kmh SW -- 29.83 in1010.2 mb 0.00 in0.0 mm 0.00 in0.0 mm 0.00 in0.0 mm
11:10 AM 59.5°F15.3°C 54.3°F12.4°C 83% 9.0 mph S14.5 kmh S -- 29.84 in1010.5 mb 0.00 in0.0 mm 0.00 in0.0 mm 0.00 in0.0 mm
11:05 AM 59.6°F15.3°C 54.3°F12.4°C 83% 4.0 mph S6.4 kmh S -- 29.84 in1010.5 mb 0.00 in0.0 mm 0.00 in0.0 mm 0.00 in0.0 mm
11:00 AM 59.6°F15.3°C 54.3°F12.4°C 83% 7.0 mph SSW11.3 kmh SSW -- 29.84 in1010.5 mb 0.00 in0.0 mm 0.00 in0.0 mm 0.00 in0.0 mm
10:55 AM 59.6°F15.3°C 54.3°F12.4°C 83% 5.0 mph SSW8.0 kmh SSW -- 29.84 in1010.5 mb 0.00 in0.0 mm 0.00 in0.0 mm 0.00 in0.0 mm
10:50 AM 59.6°F15.3°C 54.3°F12.4°C 83% 3.0 mph S4.8 kmh S -- 29.83 in1010.2 mb 0.00 in0.0 mm 0.00 in0.0 mm 0.00 in0.0 mm
10:45 AM 59.5°F15.3°C 54.3°F12.4°C 83% 6.0 mph SSE9.7 kmh SSE -- 29.83 in1010.2 mb 0.00 in0.0 mm 0.00 in0.0 mm 0.00 in0.0 mm
10:40 AM 59.1°F15.1°C 54.3°F12.4°C 84% 7.0 mph SSE11.3 kmh SSE -- 29.83 in1010.2 mb 0.00 in0.0 mm 0.00 in0.0 mm 0.00 in0.0 mm
10:35 AM 58.7°F14.8°C 53.8°F12.1°C 84% 5.0 mph S8.0 kmh S -- 29.83 in1010.2 mb 0.00 in0.0 mm 0.00 in0.0 mm 0.00 in0.0 mm
10:30 AM 58.6°F14.8°C 53.8°F12.1°C 84% 4.0 mph S6.4 kmh S -- 29.83 in1010.2 mb 0.00 in0.0 mm 0.00 in0.0 mm 0.00 in0.0 mm
10:25 AM 58.5°F14.7°C 53.6°F12.0°C 84% 10.0 mph S16.1 kmh S -- 29.82 in1009.8 mb 0.00 in0.0 mm 0.00 in0.0 mm 0.00 in0.0 mm
10:20 AM 58.3°F14.6°C 53.8°F12.1°C 85% 3.0 mph S4.8 kmh S -- 29.83 in1010.2 mb 0.00 in0.0 mm 0.00 in0.0 mm 0.00 in0.0 mm
10:15 AM 58.1°F14.5°C 53.6°F12.0°C 85% 7.0 mph SE11.3 kmh SE -- 29.82 in1009.8 mb 0.00 in0.0 mm 0.00 in0.0 mm 0.00 in0.0 mm
10:10 AM 58.0°F14.4°C 53.4°F11.9°C 85% 6.0 mph S9.7 kmh S -- 29.82 in1009.8 mb 0.00 in0.0 mm 0.00 in0.0 mm 0.00 in0.0 mm
10:05 AM 57.9°F14.4°C 53.4°F11.9°C 85% 7.0 mph SSE11.3 kmh SSE -- 29.82 in1009.8 mb 0.00 in0.0 mm 0.00 in0.0 mm 0.00 in0.0 mm
10:00 AM 57.8°F14.3°C 53.2°F11.8°C 85% 9.0 mph S14.5 kmh S -- 29.82 in1009.8 mb 0.00 in0.0 mm 0.00 in0.0 mm 0.00 in0.0 mm
09:55 AM 57.8°F14.3°C 53.2°F11.8°C 85% 11.0 mph SE17.7 kmh SE -- 29.82 in1009.8 mb 0.00 in0.0 mm 0.00 in0.0 mm 0.00 in0.0 mm
09:50 AM 57.7°F14.3°C 53.2°F11.8°C 85% 12.0 mph S19.3 kmh S -- 29.82 in1009.8 mb 0.00 in0.0 mm 0.00 in0.0 mm 0.00 in0.0 mm
09:45 AM 57.7°F14.3°C 53.2°F11.8°C 85% 9.0 mph S14.5 kmh S -- 29.82 in1009.8 mb 0.00 in0.0 mm 0.00 in0.0 mm 0.00 in0.0 mm
09:40 AM 57.6°F14.2°C 53.1°F11.7°C 85% 7.0 mph SSE11.3 kmh SSE -- 29.83 in1010.2 mb 0.00 in0.0 mm 0.00 in0.0 mm 0.00 in0.0 mm
09:35 AM 57.5°F14.2°C 53.1°F11.7°C 85% 8.0 mph S12.9 kmh S -- 29.82 in1009.8 mb 0.00 in0.0 mm 0.00 in0.0 mm 0.00 in0.0 mm
09:30 AM 57.3°F14.1°C 52.9°F11.6°C 85% 6.0 mph S9.7 kmh S -- 29.83 in1010.2 mb 0.00 in0.0 mm 0.00 in0.0 mm 0.00 in0.0 mm
09:25 AM 57.2°F14.0°C 52.7°F11.5°C 85% 10.0 mph S16.1 kmh S -- 29.83 in1010.2 mb 0.00 in0.0 mm 0.00 in0.0 mm 0.00 in0.0 mm
09:20 AM 57.2°F14.0°C 52.7°F11.5°C 85% 9.0 mph S14.5 kmh S -- 29.83 in1010.2 mb 0.00 in0.0 mm 0.00 in0.0 mm 0.00 in0.0 mm
09:15 AM 57.2°F14.0°C 52.7°F11.5°C 85% 5.0 mph SSW8.0 kmh SSW -- 29.83 in1010.2 mb 0.00 in0.0 mm 0.00 in0.0 mm 0.00 in0.0 mm
09:10 AM 57.1°F13.9°C 52.5°F11.4°C 85% 10.0 mph SSE16.1 kmh SSE -- 29.83 in1010.2 mb 0.00 in0.0 mm 0.00 in0.0 mm 0.00 in0.0 mm
09:05 AM 57.0°F13.9°C 52.5°F11.4°C 85% 6.0 mph S9.7 kmh S -- 29.83 in1010.2 mb 0.00 in0.0 mm 0.00 in0.0 mm 0.00 in0.0 mm
09:00 AM 56.9°F13.8°C 52.3°F11.3°C 85% 16.0 mph S25.7 kmh S -- 29.83 in1010.2 mb 0.00 in0.0 mm 0.00 in0.0 mm 0.00 in0.0 mm
08:55 AM 56.8°F13.8°C 52.3°F11.3°C 85% 10.0 mph SSE16.1 kmh SSE -- 29.83 in1010.2 mb 0.00 in0.0 mm 0.00 in0.0 mm 0.00 in0.0 mm
08:50 AM 56.7°F13.7°C 52.2°F11.2°C 85% 3.0 mph SW4.8 kmh SW -- 29.83 in1010.2 mb 0.00 in0.0 mm 0.00 in0.0 mm 0.00 in0.0 mm
08:45 AM 56.6°F13.7°C 52.2°F11.2°C 85% 10.0 mph S16.1 kmh S -- 29.82 in1009.8 mb 0.00 in0.0 mm 0.00 in0.0 mm 0.00 in0.0 mm
08:40 AM 56.4°F13.6°C 52.0°F11.1°C 85% 7.0 mph S11.3 kmh S -- 29.83 in1010.2 mb 0.00 in0.0 mm 0.00 in0.0 mm 0.00 in0.0 mm
08:35 AM 56.3°F13.5°C 51.8°F11.0°C 85% 12.0 mph SSE19.3 kmh SSE -- 29.82 in1009.8 mb 0.00 in0.0 mm 0.00 in0.0 mm 0.00 in0.0 mm
08:30 AM 56.3°F13.5°C 51.8°F11.0°C 85% 4.0 mph S6.4 kmh S -- 29.83 in1010.2 mb 0.00 in0.0 mm 0.00 in0.0 mm 0.00 in0.0 mm
08:25 AM 56.3°F13.5°C 51.8°F11.0°C 85% 4.0 mph S6.4 kmh S -- 29.83 in1010.2 mb 0.00 in0.0 mm 0.00 in0.0 mm 0.00 in0.0 mm
08:20 AM 56.2°F13.4°C 51.6°F10.9°C 85% 9.0 mph S14.5 kmh S -- 29.83 in1010.2 mb 0.00 in0.0 mm 0.00 in0.0 mm 0.00 in0.0 mm
08:15 AM 56.1°F13.4°C 51.6°F10.9°C 85% 6.0 mph S9.7 kmh S -- 29.83 in1010.2 mb 0.00 in0.0 mm 0.00 in0.0 mm 0.00 in0.0 mm
08:10 AM 56.0°F13.3°C 51.4°F10.8°C 85% 9.0 mph SE14.5 kmh SE -- 29.82 in1009.8 mb 0.00 in0.0 mm 0.00 in0.0 mm 0.00 in0.0 mm
08:05 AM 55.8°F13.2°C 51.6°F10.9°C 86% 12.0 mph S19.3 kmh S -- 29.82 in1009.8 mb 0.00 in0.0 mm 0.00 in0.0 mm 0.00 in0.0 mm
08:00 AM 55.6°F13.1°C 51.4°F10.8°C 86% 7.0 mph S11.3 kmh S -- 29.82 in1009.8 mb 0.00 in0.0 mm 0.00 in0.0 mm 0.00 in0.0 mm
07:55 AM 55.5°F13.1°C 51.4°F10.8°C 86% 4.0 mph SSW6.4 kmh SSW -- 29.81 in1009.5 mb 0.00 in0.0 mm 0.00 in0.0 mm 0.00 in0.0 mm
07:50 AM 55.5°F13.1°C 51.4°F10.8°C 86% 16.0 mph S25.7 kmh S -- 29.81 in1009.5 mb 0.00 in0.0 mm 0.00 in0.0 mm 0.00 in0.0 mm
07:45 AM 55.4°F13.0°C 51.3°F10.7°C 86% 15.0 mph SSE24.1 kmh SSE -- 29.81 in1009.5 mb 0.00 in0.0 mm 0.00 in0.0 mm 0.00 in0.0 mm
07:40 AM 55.2°F12.9°C 51.1°F10.6°C 86% 11.0 mph SSE17.7 kmh SSE -- 29.81 in1009.5 mb 0.00 in0.0 mm 0.00 in0.0 mm 0.00 in0.0 mm
07:35 AM 55.3°F12.9°C 51.1°F10.6°C 86% 9.0 mph SE14.5 kmh SE -- 29.81 in1009.5 mb 0.00 in0.0 mm 0.00 in0.0 mm 0.00 in0.0 mm
07:30 AM 55.2°F12.9°C 51.1°F10.6°C 86% 12.0 mph SSE19.3 kmh SSE -- 29.81 in1009.5 mb 0.00 in0.0 mm 0.00 in0.0 mm 0.00 in0.0 mm
07:25 AM 55.2°F12.9°C 51.1°F10.6°C 86% 13.0 mph SW20.9 kmh SW -- 29.82 in1009.8 mb 0.00 in0.0 mm 0.00 in0.0 mm 0.00 in0.0 mm
07:20 AM 55.1°F12.8°C 50.9°F10.5°C 86% 9.0 mph SE14.5 kmh SE -- 29.82 in1009.8 mb 0.00 in0.0 mm 0.00 in0.0 mm 0.00 in0.0 mm
07:15 AM 55.0°F12.8°C 50.5°F10.3°C 85% 6.0 mph S9.7 kmh S -- 29.82 in1009.8 mb 0.00 in0.0 mm 0.00 in0.0 mm 0.00 in0.0 mm
07:10 AM 55.0°F12.8°C 50.5°F10.3°C 85% 14.0 mph S22.5 kmh S -- 29.82 in1009.8 mb 0.00 in0.0 mm 0.00 in0.0 mm 0.00 in0.0 mm
07:05 AM 55.0°F12.8°C 50.5°F10.3°C 85% 10.0 mph SSE16.1 kmh SSE -- 29.82 in1009.8 mb 0.00 in0.0 mm 0.00 in0.0 mm 0.00 in0.0 mm
07:00 AM 54.9°F12.7°C 50.4°F10.2°C 85% 8.0 mph S12.9 kmh S -- 29.83 in1010.2 mb 0.00 in0.0 mm 0.00 in0.0 mm 0.00 in0.0 mm
06:55 AM 54.9°F12.7°C 50.4°F10.2°C 85% 10.0 mph SE16.1 kmh SE -- 29.82 in1009.8 mb 0.00 in0.0 mm 0.00 in0.0 mm 0.00 in0.0 mm
06:50 AM 54.8°F12.7°C 50.7°F10.4°C 86% 12.0 mph SE19.3 kmh SE -- 29.81 in1009.5 mb 0.00 in0.0 mm 0.00 in0.0 mm 0.00 in0.0 mm
06:45 AM 54.9°F12.7°C 50.7°F10.4°C 86% 8.0 mph S12.9 kmh S -- 29.81 in1009.5 mb 0.00 in0.0 mm 0.00 in0.0 mm 0.00 in0.0 mm
06:40 AM 54.8°F12.7°C 50.7°F10.4°C 86% 11.0 mph S17.7 kmh S -- 29.82 in1009.8 mb 0.00 in0.0 mm 0.00 in0.0 mm 0.00 in0.0 mm
06:35 AM 54.8°F12.7°C 50.7°F10.4°C 86% 13.0 mph SSE20.9 kmh SSE -- 29.82 in1009.8 mb 0.00 in0.0 mm 0.00 in0.0 mm 0.00 in0.0 mm
06:30 AM 54.7°F12.6°C 50.5°F10.3°C 86% 9.0 mph S14.5 kmh S -- 29.81 in1009.5 mb 0.00 in0.0 mm 0.00 in0.0 mm 0.00 in0.0 mm
06:25 AM 54.6°F12.6°C 50.5°F10.3°C 86% 8.0 mph S12.9 kmh S -- 29.81 in1009.5 mb 0.00 in0.0 mm 0.00 in0.0 mm 0.00 in0.0 mm
06:20 AM 54.5°F12.5°C 50.4°F10.2°C 86% 10.0 mph SW16.1 kmh SW -- 29.81 in1009.5 mb 0.00 in0.0 mm 0.00 in0.0 mm 0.00 in0.0 mm
06:15 AM 54.5°F12.5°C 50.4°F10.2°C 86% 10.0 mph S16.1 kmh S -- 29.81 in1009.5 mb 0.00 in0.0 mm 0.00 in0.0 mm 0.00 in0.0 mm
06:10 AM 54.4°F12.4°C 50.2°F10.1°C 86% 6.0 mph SE9.7 kmh SE -- 29.81 in1009.5 mb 0.00 in0.0 mm 0.00 in0.0 mm 0.00 in0.0 mm
06:05 AM 54.4°F12.4°C 50.2°F10.1°C 86% 8.0 mph S12.9 kmh S -- 29.81 in1009.5 mb 0.00 in0.0 mm 0.00 in0.0 mm 0.00 in0.0 mm
06:00 AM 54.4°F12.4°C 50.2°F10.1°C 86% 7.0 mph SSW11.3 kmh SSW -- 29.81 in1009.5 mb 0.00 in0.0 mm 0.00 in0.0 mm 0.00 in0.0 mm
05:55 AM 54.5°F12.5°C 50.4°F10.2°C 86% 14.0 mph S22.5 kmh S -- 29.81 in1009.5 mb 0.00 in0.0 mm 0.00 in0.0 mm 0.00 in0.0 mm
05:50 AM 54.4°F12.4°C 50.2°F10.1°C 86% 11.0 mph SSE17.7 kmh SSE -- 29.81 in1009.5 mb 0.00 in0.0 mm 0.00 in0.0 mm 0.00 in0.0 mm
05:45 AM 54.4°F12.4°C 50.2°F10.1°C 86% 9.0 mph SSE14.5 kmh SSE -- 29.81 in1009.5 mb 0.00 in0.0 mm 0.00 in0.0 mm 0.00 in0.0 mm
05:40 AM 54.3°F12.4°C 50.2°F10.1°C 86% 8.0 mph S12.9 kmh S -- 29.82 in1009.8 mb 0.00 in0.0 mm 0.00 in0.0 mm 0.00 in0.0 mm
05:35 AM 54.2°F12.3°C 50.0°F10.0°C 86% 6.0 mph S9.7 kmh S -- 29.82 in1009.8 mb 0.00 in0.0 mm 0.00 in0.0 mm 0.00 in0.0 mm
05:30 AM 54.2°F12.3°C 50.0°F10.0°C 86% 11.0 mph SE17.7 kmh SE -- 29.82 in1009.8 mb 0.00 in0.0 mm 0.00 in0.0 mm 0.00 in0.0 mm
05:25 AM 54.2°F12.3°C 50.0°F10.0°C 86% 6.0 mph S9.7 kmh S -- 29.82 in1009.8 mb 0.00 in0.0 mm 0.00 in0.0 mm 0.00 in0.0 mm
05:20 AM 54.2°F12.3°C 50.0°F10.0°C 86% 5.0 mph SSE8.0 kmh SSE -- 29.82 in1009.8 mb 0.00 in0.0 mm 0.00 in0.0 mm 0.00 in0.0 mm
05:15 AM 54.2°F12.3°C 50.0°F10.0°C 86% 13.0 mph S20.9 kmh S -- 29.82 in1009.8 mb 0.00 in0.0 mm 0.00 in0.0 mm 0.00 in0.0 mm
05:10 AM 54.2°F12.3°C 50.0°F10.0°C 86% 13.0 mph S20.9 kmh S -- 29.82 in1009.8 mb 0.00 in0.0 mm 0.00 in0.0 mm 0.00 in0.0 mm
05:05 AM 54.2°F12.3°C 50.0°F10.0°C 86% 9.0 mph S14.5 kmh S -- 29.82 in1009.8 mb 0.00 in0.0 mm 0.00 in0.0 mm 0.00 in0.0 mm
05:00 AM 54.2°F12.3°C 50.0°F10.0°C 86% 3.0 mph S4.8 kmh S -- 29.83 in1010.2 mb 0.00 in0.0 mm 0.00 in0.0 mm 0.00 in0.0 mm
04:55 AM 54.2°F12.3°C 50.0°F10.0°C 86% 6.0 mph SSE9.7 kmh SSE -- 29.83 in1010.2 mb 0.00 in0.0 mm 0.00 in0.0 mm 0.00 in0.0 mm
04:50 AM 54.3°F12.4°C 50.2°F10.1°C 86% 6.0 mph SSE9.7 kmh SSE -- 29.83 in1010.2 mb 0.00 in0.0 mm 0.00 in0.0 mm 0.00 in0.0 mm
04:45 AM 54.4°F12.4°C 50.2°F10.1°C 86% 10.0 mph S16.1 kmh S -- 29.83 in1010.2 mb 0.00 in0.0 mm 0.00 in0.0 mm 0.00 in0.0 mm
04:40 AM 54.4°F12.4°C 50.2°F10.1°C 86% 11.0 mph S17.7 kmh S -- 29.83 in1010.2 mb 0.00 in0.0 mm 0.00 in0.0 mm 0.00 in0.0 mm
04:35 AM 54.4°F12.4°C 50.2°F10.1°C 86% 8.0 mph SSE12.9 kmh SSE -- 29.83 in1010.2 mb 0.00 in0.0 mm 0.00 in0.0 mm 0.00 in0.0 mm
04:30 AM 54.4°F12.4°C 50.2°F10.1°C 86% 4.0 mph SSE6.4 kmh SSE -- 29.84 in1010.5 mb 0.00 in0.0 mm 0.00 in0.0 mm 0.00 in0.0 mm
04:25 AM 54.5°F12.5°C 50.0°F10.0°C 85% 8.0 mph S12.9 kmh S -- 29.83 in1010.2 mb 0.00 in0.0 mm 0.00 in0.0 mm 0.00 in0.0 mm
04:20 AM 54.4°F12.4°C 50.2°F10.1°C 86% 11.0 mph SE17.7 kmh SE -- 29.84 in1010.5 mb 0.00 in0.0 mm 0.00 in0.0 mm 0.00 in0.0 mm
04:15 AM 54.3°F12.4°C 50.2°F10.1°C 86% 6.0 mph SSW9.7 kmh SSW -- 29.84 in1010.5 mb 0.00 in0.0 mm 0.00 in0.0 mm 0.00 in0.0 mm
04:10 AM 54.2°F12.3°C 50.0°F10.0°C 86% 14.0 mph SSW22.5 kmh SSW -- 29.84 in1010.5 mb 0.00 in0.0 mm 0.00 in0.0 mm 0.00 in0.0 mm
04:05 AM 54.0°F12.2°C 49.8°F9.9°C 86% 10.0 mph S16.1 kmh S -- 29.84 in1010.5 mb 0.00 in0.0 mm 0.00 in0.0 mm 0.00 in0.0 mm
04:00 AM 53.9°F12.2°C 49.8°F9.9°C 86% 5.0 mph S8.0 kmh S -- 29.84 in1010.5 mb 0.00 in0.0 mm 0.00 in0.0 mm 0.00 in0.0 mm
03:55 AM 53.7°F12.1°C 49.6°F9.8°C 86% 11.0 mph SSW17.7 kmh SSW -- 29.84 in1010.5 mb 0.00 in0.0 mm 0.00 in0.0 mm 0.00 in0.0 mm
03:50 AM 53.7°F12.1°C 49.6°F9.8°C 86% 7.0 mph S11.3 kmh S -- 29.84 in1010.5 mb 0.00 in0.0 mm 0.00 in0.0 mm 0.00 in0.0 mm
03:45 AM 53.6°F12.0°C 49.5°F9.7°C 86% 4.0 mph S6.4 kmh S -- 29.84 in1010.5 mb 0.00 in0.0 mm 0.00 in0.0 mm 0.00 in0.0 mm
03:40 AM 53.5°F11.9°C 49.3°F9.6°C 86% 15.0 mph S24.1 kmh S -- 29.84 in1010.5 mb 0.00 in0.0 mm 0.00 in0.0 mm 0.00 in0.0 mm
03:35 AM 53.5°F11.9°C 49.3°F9.6°C 86% 8.0 mph SSE12.9 kmh SSE -- 29.85 in1010.8 mb 0.00 in0.0 mm 0.00 in0.0 mm 0.00 in0.0 mm
03:30 AM 53.4°F11.9°C 49.3°F9.6°C 86% 6.0 mph S9.7 kmh S -- 29.86 in1011.2 mb 0.00 in0.0 mm 0.00 in0.0 mm 0.00 in0.0 mm
03:25 AM 53.3°F11.8°C 49.1°F9.5°C 86% 7.0 mph S11.3 kmh S -- 29.86 in1011.2 mb 0.00 in0.0 mm 0.00 in0.0 mm 0.00 in0.0 mm
03:20 AM 53.2°F11.8°C 49.5°F9.7°C 87% 8.0 mph SSE12.9 kmh SSE -- 29.86 in1011.2 mb 0.00 in0.0 mm 0.00 in0.0 mm 0.00 in0.0 mm
03:15 AM 53.1°F11.7°C 48.9°F9.4°C 86% 9.0 mph SSE14.5 kmh SSE -- 29.86 in1011.2 mb 0.00 in0.0 mm 0.00 in0.0 mm 0.00 in0.0 mm
03:10 AM 53.0°F11.7°C 49.3°F9.6°C 87% 12.0 mph S19.3 kmh S -- 29.86 in1011.2 mb 0.00 in0.0 mm 0.00 in0.0 mm 0.00 in0.0 mm
03:05 AM 53.0°F11.7°C 49.3°F9.6°C 87% 10.0 mph S16.1 kmh S -- 29.86 in1011.2 mb 0.00 in0.0 mm 0.00 in0.0 mm 0.00 in0.0 mm
03:00 AM 52.9°F11.6°C 49.1°F9.5°C 87% 17.0 mph S27.4 kmh S -- 29.86 in1011.2 mb 0.00 in0.0 mm 0.00 in0.0 mm 0.00 in0.0 mm
02:55 AM 52.8°F11.6°C 49.1°F9.5°C 87% 6.0 mph S9.7 kmh S -- 29.86 in1011.2 mb 0.00 in0.0 mm 0.00 in0.0 mm 0.00 in0.0 mm
02:50 AM 52.7°F11.5°C 48.9°F9.4°C 87% 7.0 mph S11.3 kmh S -- 29.86 in1011.2 mb 0.00 in0.0 mm 0.00 in0.0 mm 0.00 in0.0 mm
02:45 AM 52.7°F11.5°C 48.9°F9.4°C 87% 5.0 mph SSE8.0 kmh SSE -- 29.87 in1011.5 mb 0.00 in0.0 mm 0.00 in0.0 mm 0.00 in0.0 mm
02:40 AM 52.6°F11.4°C 48.7°F9.3°C 87% 12.0 mph SSE19.3 kmh SSE -- 29.87 in1011.5 mb 0.00 in0.0 mm 0.00 in0.0 mm 0.00 in0.0 mm
02:35 AM 52.4°F11.3°C 48.6°F9.2°C 87% 15.0 mph S24.1 kmh S -- 29.87 in1011.5 mb 0.00 in0.0 mm 0.00 in0.0 mm 0.00 in0.0 mm
02:30 AM 52.4°F11.3°C 48.6°F9.2°C 87% 13.0 mph SE20.9 kmh SE -- 29.87 in1011.5 mb 0.00 in0.0 mm 0.00 in0.0 mm 0.00 in0.0 mm
02:25 AM 52.3°F11.3°C 48.6°F9.2°C 87% 4.0 mph S6.4 kmh S -- 29.87 in1011.5 mb 0.00 in0.0 mm 0.00 in0.0 mm 0.00 in0.0 mm
02:20 AM 52.2°F11.2°C 48.4°F9.1°C 87% 10.0 mph SSE16.1 kmh SSE -- 29.87 in1011.5 mb 0.00 in0.0 mm 0.00 in0.0 mm 0.00 in0.0 mm
02:15 AM 52.1°F11.2°C 48.7°F9.3°C 88% 8.0 mph S12.9 kmh S -- 29.88 in1011.9 mb 0.00 in0.0 mm 0.00 in0.0 mm 0.00 in0.0 mm
02:10 AM 52.0°F11.1°C 48.6°F9.2°C 88% 8.0 mph S12.9 kmh S -- 29.88 in1011.9 mb 0.00 in0.0 mm 0.00 in0.0 mm 0.00 in0.0 mm
02:05 AM 51.9°F11.1°C 48.6°F9.2°C 88% 12.0 mph SSW19.3 kmh SSW -- 29.88 in1011.9 mb 0.00 in0.0 mm 0.00 in0.0 mm 0.00 in0.0 mm
02:00 AM 51.8°F11.0°C 48.4°F9.1°C 88% 2.0 mph S3.2 kmh S -- 29.88 in1011.9 mb 0.00 in0.0 mm 0.00 in0.0 mm 0.00 in0.0 mm
01:55 AM 51.7°F10.9°C 48.2°F9.0°C 88% 10.0 mph SSW16.1 kmh SSW -- 29.88 in1011.9 mb 0.00 in0.0 mm 0.00 in0.0 mm 0.00 in0.0 mm
01:50 AM 51.6°F10.9°C 48.2°F9.0°C 88% 10.0 mph SSE16.1 kmh SSE -- 29.88 in1011.9 mb 0.00 in0.0 mm 0.00 in0.0 mm 0.00 in0.0 mm
01:45 AM 51.5°F10.8°C 48.0°F8.9°C 88% 6.0 mph SSE9.7 kmh SSE -- 29.89 in1012.2 mb 0.00 in0.0 mm 0.00 in0.0 mm 0.00 in0.0 mm
01:40 AM 51.4°F10.8°C 48.0°F8.9°C 88% 5.0 mph S8.0 kmh S -- 29.89 in1012.2 mb 0.00 in0.0 mm 0.00 in0.0 mm 0.00 in0.0 mm
01:35 AM 51.4°F10.8°C 48.0°F8.9°C 88% 7.0 mph SSW11.3 kmh SSW -- 29.89 in1012.2 mb 0.00 in0.0 mm 0.00 in0.0 mm 0.00 in0.0 mm
01:30 AM 51.3°F10.7°C 47.5°F8.6°C 87% 12.0 mph SSE19.3 kmh SSE -- 29.89 in1012.2 mb 0.00 in0.0 mm 0.00 in0.0 mm 0.00 in0.0 mm
01:25 AM 51.3°F10.7°C 47.5°F8.6°C 87% 8.0 mph S12.9 kmh S -- 29.89 in1012.2 mb 0.00 in0.0 mm 0.00 in0.0 mm 0.00 in0.0 mm
01:20 AM 51.3°F10.7°C 47.5°F8.6°C 87% 12.0 mph S19.3 kmh S -- 29.90 in1012.5 mb 0.00 in0.0 mm 0.00 in0.0 mm 0.00 in0.0 mm
01:15 AM 51.2°F10.7°C 47.5°F8.6°C 87% 9.0 mph S14.5 kmh S -- 29.90 in1012.5 mb 0.00 in0.0 mm 0.00 in0.0 mm 0.00 in0.0 mm
01:10 AM 51.2°F10.7°C 47.5°F8.6°C 87% 5.0 mph SSE8.0 kmh SSE -- 29.91 in1012.9 mb 0.00 in0.0 mm 0.00 in0.0 mm 0.00 in0.0 mm
01:05 AM 51.2°F10.7°C 47.5°F8.6°C 87% 1.0 mph S1.6 kmh S -- 29.91 in1012.9 mb 0.00 in0.0 mm 0.00 in0.0 mm 0.00 in0.0 mm
01:00 AM 51.2°F10.7°C 47.3°F8.5°C 86% 6.0 mph SSE9.7 kmh SSE -- 29.91 in1012.9 mb 0.00 in0.0 mm 0.00 in0.0 mm 0.00 in0.0 mm
12:55 AM 51.4°F10.8°C 47.5°F8.6°C 86% 4.0 mph S6.4 kmh S -- 29.91 in1012.9 mb 0.00 in0.0 mm 0.00 in0.0 mm 0.00 in0.0 mm
12:50 AM 51.5°F10.8°C 47.5°F8.6°C 86% 10.0 mph S16.1 kmh S -- 29.91 in1012.9 mb 0.00 in0.0 mm 0.00 in0.0 mm 0.00 in0.0 mm
12:45 AM 51.6°F10.9°C 47.3°F8.5°C 85% 16.0 mph S25.7 kmh S -- 29.91 in1012.9 mb 0.00 in0.0 mm 0.00 in0.0 mm 0.00 in0.0 mm
12:40 AM 51.7°F10.9°C 47.3°F8.5°C 85% 3.0 mph S4.8 kmh S -- 29.91 in1012.9 mb 0.00 in0.0 mm 0.00 in0.0 mm 0.00 in0.0 mm
12:35 AM 51.7°F10.9°C 47.3°F8.5°C 85% 6.0 mph S9.7 kmh S -- 29.91 in1012.9 mb 0.00 in0.0 mm 0.00 in0.0 mm 0.00 in0.0 mm
12:30 AM 51.7°F10.9°C 47.3°F8.5°C 85% 9.0 mph S14.5 kmh S -- 29.91 in1012.9 mb 0.00 in0.0 mm 0.00 in0.0 mm 0.00 in0.0 mm
12:25 AM 51.8°F11.0°C 47.5°F8.6°C 85% 4.0 mph SE6.4 kmh SE -- 29.91 in1012.9 mb 0.00 in0.0 mm 0.00 in0.0 mm 0.00 in0.0 mm
12:20 AM 51.8°F11.0°C 47.5°F8.6°C 85% 13.0 mph S20.9 kmh S -- 29.91 in1012.9 mb 0.00 in0.0 mm 0.00 in0.0 mm 0.00 in0.0 mm
12:15 AM 51.8°F11.0°C 47.1°F8.4°C 84% 11.0 mph SSE17.7 kmh SSE -- 29.91 in1012.9 mb 0.00 in0.0 mm 0.00 in0.0 mm 0.00 in0.0 mm
12:10 AM 51.8°F11.0°C 47.1°F8.4°C 84% 12.0 mph SSE19.3 kmh SSE -- 29.91 in1012.9 mb 0.00 in0.0 mm 0.00 in0.0 mm 0.00 in0.0 mm
12:05 AM 51.8°F11.0°C 47.1°F8.4°C 84% 12.0 mph S19.3 kmh S -- 29.91 in1012.9 mb 0.00 in0.0 mm 0.00 in0.0 mm 0.00 in0.0 mm
12:00 AM 51.8°F11.0°C 47.1°F8.4°C 84% 9.0 mph SSE14.5 kmh SSE -- 29.92 in1013.2 mb 0.00 in0.0 mm 0.00 in0.0 mm 0.00 in0.0 mm